createdAt,value
2023-03-11T00:13:49.949Z,10.19
2023-03-11T00:28:51.781Z,9.65
2023-03-11T00:43:53.646Z,9.35
2023-03-11T00:58:55.771Z,9.09
2023-03-11T01:13:58.162Z,9.20
2023-03-11T01:28:59.975Z,9.39
2023-03-11T01:44:02.585Z,9.31
2023-03-11T01:59:06.657Z,9.11
2023-03-11T02:14:09.517Z,8.72
2023-03-11T02:29:18.185Z,8.59
2023-03-11T02:44:20.142Z,8.60
2023-03-11T02:59:22.521Z,8.64
2023-03-11T03:14:24.387Z,8.66
2023-03-11T03:29:26.187Z,8.47
2023-03-11T03:44:28.156Z,8.39
2023-03-11T03:59:30.481Z,8.41
2023-03-11T04:14:32.331Z,8.68
2023-03-11T04:29:35.006Z,8.83
2023-03-11T04:44:36.912Z,8.61
2023-03-11T04:59:39.046Z,8.82
2023-03-11T05:14:41.037Z,8.93
2023-03-11T05:29:43.860Z,9.03
2023-03-11T05:44:45.732Z,9.08
2023-03-11T05:59:47.907Z,8.78
2023-03-11T06:14:49.727Z,9.09
2023-03-11T06:29:54.935Z,9.47
2023-03-11T06:44:57.016Z,9.73
2023-03-11T07:00:00.144Z,9.92
2023-03-11T07:15:06.578Z,10.14
2023-03-11T07:30:09.292Z,10.30
2023-03-11T07:45:11.456Z,10.53
2023-03-11T08:00:14.194Z,10.80
2023-03-11T08:15:16.034Z,10.87
2023-03-11T08:30:18.233Z,11.28
2023-03-11T08:45:20.071Z,11.51
2023-03-11T09:00:22.970Z,11.61
2023-03-11T09:15:25.208Z,11.83
2023-03-11T09:30:27.429Z,12.12
2023-03-11T09:45:32.394Z,12.30
2023-03-11T10:00:35.840Z,12.49
2023-03-11T10:16:05.054Z,12.72
2023-03-11T10:31:21.895Z,12.70
2023-03-11T10:46:27.260Z,12.74
2023-03-11T11:01:30.695Z,12.76
2023-03-11T11:16:36.740Z,12.75
2023-03-11T11:31:44.079Z,12.75
2023-03-11T11:47:13.376Z,12.70
2023-03-11T12:02:33.897Z,12.73
2023-03-11T12:17:40.473Z,12.69
2023-03-11T12:32:50.153Z,12.81
2023-03-11T12:48:29.836Z,12.91
2023-03-11T13:03:39.674Z,13.11
2023-03-11T13:18:43.947Z,13.13
2023-03-11T13:34:02.683Z,13.11
2023-03-11T13:49:33.881Z,13.07
2023-03-11T14:04:37.988Z,13.26
2023-03-11T14:19:39.822Z,13.29
2023-03-11T14:34:41.798Z,12.93
2023-03-11T14:49:44.257Z,12.81
2023-03-11T15:04:46.939Z,12.53
2023-03-11T15:19:49.567Z,12.48
2023-03-11T15:35:07.656Z,12.44
2023-03-11T15:50:24.439Z,12.37
2023-03-11T16:05:28.028Z,12.05
2023-03-11T16:20:36.681Z,12.00
2023-03-11T16:35:38.758Z,11.83
2023-03-11T16:50:41.803Z,12.07
2023-03-11T17:05:44.140Z,12.17
2023-03-11T17:20:46.001Z,12.10
2023-03-11T17:35:47.865Z,12.27
2023-03-11T17:50:50.001Z,12.22
2023-03-11T18:06:01.288Z,12.27
2023-03-11T18:21:06.156Z,12.06
2023-03-11T18:36:19.258Z,12.12
2023-03-11T18:51:22.583Z,12.07
2023-03-11T19:06:27.665Z,12.03
2023-03-11T19:21:29.600Z,11.94
2023-03-11T19:36:31.768Z,11.91
2023-03-11T19:51:48.530Z,12.01
2023-03-11T20:06:51.500Z,11.90
2023-03-11T20:21:53.337Z,11.77
2023-03-11T20:36:55.205Z,11.92
2023-03-11T20:51:57.105Z,11.94
2023-03-11T21:06:58.992Z,11.88
2023-03-11T21:22:00.920Z,11.76
2023-03-11T21:37:02.855Z,11.70
2023-03-11T21:52:06.555Z,11.65
2023-03-11T22:07:09.127Z,11.54
2023-03-11T22:22:11.028Z,11.61
2023-03-11T22:37:12.899Z,11.77
2023-03-11T22:52:14.766Z,11.68
2023-03-11T23:07:16.678Z,11.87
2023-03-11T23:22:18.706Z,11.93
2023-03-11T23:37:20.634Z,12.05
2023-03-11T23:52:23.138Z,12.09
